Jemez Springs, Valles Caldera, New Mexico Weather observations

Data are for 10 minute period ending at time listed.
 Day   Time   Solar   Ave.   Ave.  Ave.  Vector  Max.   Baro.   Total    
  of    of     Rad.   Air    Rel.  Wind   Wind   Wind  Press.  Precip.   
Year   Day            Temp.  Hum.  Speed  Dir.   Gust                    
2014   (MST)  Kw/m2    F      %     mph   deg.    mph    mb.     in.     
-------------------------------------------------------------------------
 330    2:30   0.00   32.5    59    5.0     2     7.8   813.3    0.00 
 330    2:40   0.00   32.7    59    4.4     4     9.0   813.3    0.00 
 330    2:50   0.00   32.5    59    3.4    12     6.0   813.3    0.00 
 330    3:00   0.00   30.8    62    4.0    10     6.6   813.3    0.00 
 330    3:10   0.00   30.7    63    5.4    12     7.8   813.2    0.00 
 330    3:20   0.00   30.1    64    3.9     1     7.2   813.1    0.00 
 330    3:30   0.00   31.2    62    4.4    15     7.2   813.2    0.00 
 330    3:40   0.00   31.5    62    4.1    14     6.9   813.2    0.00 
 330    3:50   0.00   32.4    60    4.0   354     6.6   813.1    0.00 
 330    4:00   0.00   31.7    61    4.8     4     7.2   813.1    0.00 
 330    4:10   0.00   30.4    63    2.8    13     5.4   813.1    0.00 
 330    4:20   0.00   29.7    65    3.5     7     7.8   813.2    0.00 
 330    4:30   0.00   30.9    64    5.1     2     9.0   813.1    0.00 
 330    4:40   0.00   31.3    63    4.0   356     7.2   813.0    0.00 
 330    4:50   0.00   31.3    63    3.2   340     7.2   813.1    0.00 
 330    5:00   0.00   30.1    65    3.2     2     7.8   813.2    0.00 
 330    5:10   0.00   29.4    68    3.5    12     6.6   813.3    0.00 
 330    5:20   0.00   30.3    66    4.1    16     8.4   813.3    0.00 
 330    5:30   0.00   30.7    66    4.4   354     7.8   813.4    0.00 
 330    5:40   0.00   31.0    65    5.6    12     9.6   813.5    0.00 
 330    5:50   0.00   31.3    65    4.2   353     9.6   813.5    0.00 
 330    6:00   0.00   31.9    64    6.3   358    10.2   813.6    0.00 
 330    6:10   0.00   31.9    64    5.8     6     9.6   813.7    0.00 
 330    6:20   0.00   31.0    66    4.2    15     6.6   813.8    0.00 
 330    6:30   0.00   31.5    66    4.8     5     9.6   813.9    0.00 
 330    6:40   0.00   32.4    64    6.6    12    12.5   813.9    0.00 
 330    6:50   0.00   33.9    62    6.6    16    11.9   814.0    0.00 
 330    7:00   0.00   33.2    62    5.4    26    10.2   814.2    0.00 
 330    7:10   0.01   33.0    63    4.2    24     7.8   814.4    0.00 
 330    7:20   0.01   30.7    66    2.1   181     4.8   814.3    0.00 
 330    7:30   0.02   28.9    71    0.6   210     2.4   814.4    0.00 
 330    7:40   0.02   29.0    71    2.1    22     6.0   814.5    0.00 
 330    7:50   0.02   29.4    72    2.5    22     6.0   814.4    0.00 
 330    8:00   0.03   30.4    70    2.7    29     7.2   814.5    0.00 
 330    8:10   0.03   32.1    67    3.6     9     7.8   814.5    0.00 
 330    8:20   0.05   32.2    66    3.6    36     6.0   814.6    0.00 
 330    8:30   0.25   35.4    61    3.4    45     6.6   814.6    0.00 
 330    8:40   0.28   35.9    58    4.7   168     7.8   814.8    0.00 
 330    8:50   0.31   37.2    56    4.6   154     7.8   814.8    0.00 
 330    9:00   0.34   38.9    52    6.0   174    11.3   814.8    0.00 
 330    9:10   0.37   40.4    50    5.5   167    10.8   814.9    0.00 
 330    9:20   0.40   40.0    50    8.5   167    13.7   815.1    0.00 
 330    9:30   0.42   40.8    48    8.0   184    13.7   815.2    0.00 
 330    9:40   0.44   45.0    44    9.0   224    14.3   815.1    0.00 
 330    9:50   0.46   50.7    35    6.2   124    15.5   815.1    0.00 
 330   10:00   0.48   46.9    35    7.7   170    13.1   815.1    0.00 
 330   10:10   0.50   49.8    34    6.7   182    11.3   815.0    0.00 
 330   10:20   0.52   54.2    32    5.0   144    11.3   815.0    0.00 
 330   10:30   0.54   55.6    30    5.3    35    13.7   815.0    0.00 
 330   10:40   0.55   56.5    28    7.9   353    16.1   814.9    0.00 
 330   10:50   0.56   55.7    29    9.1     5    16.7   814.8    0.00 
 330   11:00   0.57   57.0    28    6.2   305    11.3   814.7    0.00 
 330   11:10   0.57   56.9    27    6.3     5    17.3   814.5    0.00 
 330   11:20   0.58   57.2    26    7.2   346    17.9   814.5    0.00 
 330   11:30   0.59   56.1    27    8.7    28    18.5   814.4    0.00 
 330   11:40   0.56   56.7    27    4.5    88    12.5   814.4    0.00 
 330   11:50   0.59   57.5    26    6.0    59    11.9   814.3    0.00 
 330   12:00   0.58   56.9    26    4.6    62    11.9   814.2    0.00 
 330   12:10   0.57   56.8    26    7.0   357    16.1   814.2    0.00 
 330   12:20   0.58   56.9    25    7.8    22    15.5   814.2    0.00 
 330   12:30   0.58   57.5    25    6.1   325    14.9   814.1    0.00 
 330   12:40   0.57   57.5    24    9.4   291    16.7   814.1    0.00 
 330   12:50   0.56   58.4    24    7.2   306    17.9   814.1    0.00 
 330   13:00   0.55   58.7    23    7.7   303    16.1   814.2    0.00 
 330   13:10   0.54   58.7    23    7.9   307    15.5   814.1    0.00 
 330   13:20   0.52   58.1    23   11.2   313    20.3   814.2    0.00 
 330   13:30   0.51   58.2    23    8.7   322    18.5   814.2    0.00 
 330   13:40   0.49   58.8    22    7.8   357    14.3   814.1    0.00 
 330   13:50   0.47   58.9    22    6.4   346    16.1   814.1    0.00 
 330   14:00   0.45   59.5    21    6.9   344    11.9   814.1    0.00 
 330   14:10   0.44   60.3    21    5.3   337    11.3   814.0    0.01 
 330   14:20   0.42   59.6    21    6.4    20    13.1   813.9    0.00 
 330   14:30   0.39   60.2    21    4.7   316    10.8   814.1    0.00 
 330   14:40   0.36   59.3    22    4.6   342    20.3   814.2    0.00 
 330   14:50   0.34   60.0    21    5.9   312    12.5   814.3    0.00 
 330   15:00   0.30   57.9    23    7.3   273    15.5   814.4    0.01 
 330   15:10   0.27   57.7    23    5.3     7    14.3   814.4    0.00 
 330   15:20   0.25   57.8    23    5.5   360    10.2   814.4    0.00 
 330   15:30   100.00  99999.0   99999  99999.0   99999   99999.0   99999.0   99999.00 
 330   15:40   100.00  99999.0   99999  99999.0   99999   99999.0   99999.0   99999.00 
 330   15:50   100.00  99999.0   99999  99999.0   99999   99999.0   99999.0   99999.00 
 330   16:00   100.00  99999.0   99999  99999.0   99999   99999.0   99999.0   99999.00 
 330   16:10   100.00  99999.0   99999  99999.0   99999   99999.0   99999.0   99999.00 
 330   16:20   100.00  99999.0   99999  99999.0   99999   99999.0   99999.0   99999.00 
 330   16:30   0.01   53.9    27    6.3    19    11.9   814.8    0.00 
 330   16:40   0.01   53.6    28    7.3    18    11.9   814.9    0.00 
 330   16:50   0.01   53.2    28    6.7    14    11.9   815.0    0.00 
 330   17:00   0.01   52.8    29    6.3    21    14.9   815.0    0.00 
 330   17:10   0.00   52.6    29    9.0    29    16.7   815.1    0.00 
 330   17:20   0.00   52.4    29    4.3    44    11.3   815.2    0.00 
 330   17:30   0.00   50.9    30    2.5     9     8.4   815.3    0.00 
 330   17:40   0.00   50.1    32    4.4    31     7.8   815.4    0.00 
 330   17:50   0.00   49.7    32    2.9    32     6.6   815.5    0.00 
 330   18:00   0.00   48.1    33    2.3   137     6.0   815.6    0.00 
 330   18:10   0.00   45.8    36    2.5   163     5.4   815.7    0.00 
 330   18:20   0.00   43.9    39    1.2    54     4.2   815.8    0.00 
 330   18:30   0.00   42.1    42    1.6    32     5.4   816.0    0.00 
 330   18:40   0.00   41.1    44    2.3    34     3.9   816.1    0.00 
 330   18:50   0.00   40.3    45    2.1    12     4.8   816.2    0.00 
 330   19:00   0.00   38.6    48    2.1    22     3.0   816.3    0.00 
 330   19:10   0.00   38.1    49    3.2    24     4.8   816.4    0.00 
 330   19:20   0.00   38.5    49    4.2    19     6.6   816.4    0.00 
 330   19:30   0.00   39.0    48    5.3    27     9.6   816.4    0.00 
 330   19:40   0.00   39.0    48    7.3    25    10.2   816.5    0.00 
 330   19:50   0.00   38.7    49    6.5    28    10.2   816.5    0.00 
 330   20:00   0.00   38.9    48    6.7    29     8.4   816.7    0.00 
 330   20:10   0.00   39.0    48    6.6    24    11.3   816.9    0.00 
 330   20:20   0.00   39.0    48    8.5    20    13.7   817.1    0.00 
 330   20:30   0.00   39.0    48    7.4    16    11.9   817.2    0.00 
 330   20:40   0.00   39.2    48    6.8    10    11.9   817.2    0.00 
 330   20:50   0.00   39.8    47    6.7     4    11.9   817.2    0.00 
 330   21:00   0.00   39.1    48    9.3    18    13.7   817.3    0.00 
 330   21:10   0.00   38.3    50    8.5    16    11.3   817.2    0.00 
 330   21:20   0.00   38.8    49    8.6    10    12.5   817.3    0.00 
 330   21:30   0.00   39.9    47    9.5    16    14.3   817.3    0.00 
 330   21:40   0.00   40.0    47   10.4    15    15.5   817.3    0.00 
 330   21:50   0.00   40.1    46    9.7    11    14.9   817.3    0.00 
 330   22:00   0.00   39.5    47    7.7    14    13.1   817.5    0.00 
 330   22:10   0.00   38.9    48    7.0    12    11.3   817.6    0.00 
 330   22:20   0.00   38.3    49    4.4     9     9.6   817.7    0.00 
 330   22:30   0.00   37.7    50    5.2     9    10.8   817.8    0.00 
 330   22:40   0.00   37.3    50    4.6   347     8.4   817.8    0.00 
 330   22:50   0.00   36.9    51    4.4   334     9.6   817.8    0.00 
 330   23:00   0.00   36.6    52    4.0   354     7.8   817.9    0.00 
 330   23:10   0.00   36.5    52    4.8    13     7.2   818.0    0.00 
 330   23:20   0.00   35.7    53    3.8     9     6.6   818.1    0.00 
 330   23:30   0.00   35.3    54    3.3   356     6.6   818.2    0.00 
 330   23:40   0.00   35.2    54    3.1    16     6.3   818.3    0.00 
 330   23:50   0.00   35.2    54    4.2    16     7.8   818.2    0.00 
 331    0:00   0.00   34.6    56    4.2    15     7.8   818.2    0.00 
 331    0:10   0.00   34.6    56    5.4    16     9.0   818.0    0.00 
 331    0:20   0.00   34.5    56    6.5    20    10.2   818.1    0.00 
 331    0:30   0.00   34.6    56    6.4    13    10.8   818.1    0.00 
 331    0:40   0.00   34.8    55    5.9    10     9.6   818.1    0.00 
 331    0:50   0.00   34.8    55    6.1     7     9.6   818.0    0.00 
 331    1:00   0.00   34.7    56    6.4     6    10.8   818.0    0.00 
 331    1:10   0.00   35.0    55    6.5    17    10.2   818.1    0.00 
 331    1:20   0.00   34.4    56    4.6     0     9.0   818.1    0.00 
 331    1:30   0.00   34.6    56    5.7     1    10.8   818.1    0.00 
 331    1:40   0.00   34.6    56    5.2     5     9.0   818.1    0.00 
 331    1:50   0.00   34.6    55    6.0   352     9.6   818.0    0.00 
 331    2:00   0.00   34.9    54    6.8     3    11.3   817.9    0.00 
 331    2:10   0.00   34.9    54    5.9    16    10.8   817.9    0.00 
 331    2:20   0.00   34.8    54    4.3     7     7.8   817.8    0.00 

Return to Jemez Springs, Valles Caldera graphs page.


Western Regional Climate Center,wrcc@dri.edu